Time;durP1;ratioP1;P1;durP2;ratioP2;P2;SDS_P1;SDS_P2;PMS_P1;PMS_P2;Temp;Humidity;BMP_temperature;BMP_pressure;BME280_temperature;BME280_humidity;BME280_pressure;Samples;Min_cycle;Max_cycle;Signal;HPM_P1;HPM_P2
2023/04/09 00:01:23;;;;;;;10.15;7.15;;;10.50;71.80;;;;;;6218271;23;20012;-74
2023/04/09 00:03:49;;;;;;;16.48;7.25;;;10.50;71.70;;;;;;6218278;23;20015;-75
2023/04/09 00:06:15;;;;;;;9.48;7.15;;;10.40;71.80;;;;;;6245210;23;20004;-74
2023/04/09 00:08:40;;;;;;;11.15;8.20;;;10.40;72.00;;;;;;6245051;23;20377;-76
2023/04/09 00:11:06;;;;;;;10.15;7.30;;;10.30;71.80;;;;;;6244930;23;19996;-75
2023/04/09 00:13:32;;;;;;;9.60;7.50;;;10.30;72.20;;;;;;6218449;23;20012;-75
2023/04/09 00:15:57;;;;;;;11.00;7.32;;;10.20;72.10;;;;;;6245115;23;20008;-75
2023/04/09 00:18:23;;;;;;;9.68;7.20;;;10.20;72.30;;;;;;6244601;23;20023;-75
2023/04/09 00:20:49;;;;;;;9.63;7.18;;;10.20;72.30;;;;;;6244806;23;20000;-75
2023/04/09 00:23:15;;;;;;;10.10;7.10;;;10.20;72.10;;;;;;6245062;23;20438;-74
2023/04/09 00:25:40;;;;;;;10.27;7.07;;;10.20;72.40;;;;;;6244827;23;20003;-75
2023/04/09 00:28:06;;;;;;;10.20;7.35;;;10.20;72.40;;;;;;6244733;23;20007;-75
2023/04/09 00:30:32;;;;;;;9.45;6.85;;;10.20;72.30;;;;;;6244994;23;20042;-75
2023/04/09 00:32:57;;;;;;;10.32;7.20;;;10.20;72.20;;;;;;6217906;23;20012;-75
2023/04/09 00:35:24;;;;;;;10.52;7.13;;;10.20;72.40;;;;;;6244472;23;20062;-76
2023/04/09 00:37:49;;;;;;;10.77;7.53;;;10.10;72.50;;;;;;6244843;23;20012;-75
2023/04/09 00:40:15;;;;;;;9.98;6.90;;;10.10;72.50;;;;;;6217953;23;20308;-75
2023/04/09 00:42:41;;;;;;;10.93;7.13;;;10.20;72.60;;;;;;6244675;23;20000;-74
2023/04/09 00:45:07;;;;;;;10.38;6.53;;;10.20;72.40;;;;;;6244833;23;20075;-74
2023/04/09 00:47:34;;;;;;;9.52;6.95;;;10.20;72.60;;;;;;6245011;23;20054;-75
2023/04/09 00:50:01;;;;;;;8.70;6.60;;;10.20;72.50;;;;;;6245191;23;20000;-75
2023/04/09 00:52:29;;;;;;;11.57;7.00;;;10.10;72.10;;;;;;6249323;23;20000;-76
2023/04/09 00:54:57;;;;;;;10.35;6.97;;;10.10;72.10;;;;;;6258351;23;20438;-74
2023/04/09 00:57:23;;;;;;;9.65;6.95;;;10.10;72.40;;;;;;6222363;23;20451;-75
2023/04/09 00:59:49;;;;;;;9.70;7.00;;;10.10;72.60;;;;;;6246581;23;20066;-75
2023/04/09 01:02:15;;;;;;;12.30;7.20;;;10.00;72.40;;;;;;6246615;23;20112;-76
2023/04/09 01:04:42;;;;;;;8.90;6.88;;;10.00;72.30;;;;;;6246321;23;19996;-75
2023/04/09 01:07:25;;;;;;;10.13;6.93;;;9.90;73.70;;;;;;6246665;23;20024;-75
2023/04/09 01:10:19;;;;;;;9.00;6.90;;;9.90;74.70;;;;;;6246599;23;20000;-74
2023/04/09 01:13:03;;;;;;;9.93;6.77;;;9.90;74.70;;;;;;6246212;23;20004;-75
2023/04/09 01:15:32;;;;;;;12.70;6.75;;;9.90;74.60;;;;;;6246708;23;20003;-75
2023/04/09 01:18:04;;;;;;;13.20;6.72;;;9.80;73.70;;;;;;6246031;23;20502;-74
2023/04/09 01:20:41;;;;;;;8.88;6.72;;;9.80;73.70;;;;;;6246557;23;20430;-75
2023/04/09 01:23:15;;;;;;;9.95;6.55;;;9.80;74.80;;;;;;6219136;23;20323;-76
2023/04/09 01:25:44;;;;;;;8.25;6.43;;;9.70;73.60;;;;;;6246365;23;19996;-75
2023/04/09 01:28:31;;;;;;;11.52;6.90;;;9.70;73.70;;;;;;6246488;23;20023;-75
2023/04/09 01:31:03;;;;;;;9.88;6.95;;;9.60;74.90;;;;;;6219386;23;20004;-75
2023/04/09 01:33:31;;;;;;;10.55;6.85;;;9.60;73.60;;;;;;6246425;23;20000;-75
2023/04/09 01:35:58;;;;;;;9.52;7.00;;;9.70;73.80;;;;;;6246469;23;20023;-75
2023/04/09 01:38:25;;;;;;;10.48;7.15;;;9.70;73.80;;;;;;6246057;23;20051;-73
2023/04/09 01:40:52;;;;;;;10.98;7.70;;;9.60;73.90;;;;;;6246140;23;20003;-74
2023/04/09 01:43:18;;;;;;;11.93;7.38;;;9.60;73.80;;;;;;6219288;23;20064;-76
2023/04/09 01:45:45;;;;;;;10.68;7.10;;;9.60;74.00;;;;;;6246092;23;20011;-75
2023/04/09 01:48:12;;;;;;;8.40;6.20;;;9.60;74.10;;;;;;6245885;23;20057;-75
2023/04/09 01:50:39;;;;;;;10.20;6.93;;;9.60;73.90;;;;;;6246003;23;19996;-75
2023/04/09 01:53:05;;;;;;;11.00;7.05;;;9.60;74.20;;;;;;6246072;23;20011;-73
2023/04/09 01:55:31;;;;;;;9.35;6.90;;;9.70;74.30;;;;;;6245991;23;20076;-74
2023/04/09 01:57:57;;;;;;;10.00;6.65;;;9.70;74.20;;;;;;6246105;23;20027;-75
2023/04/09 02:00:25;;;;;;;11.40;7.38;;;9.70;74.30;;;;;;6245901;23;20000;-74
2023/04/09 02:03:15;;;;;;;9.57;6.30;;;9.70;74.20;;;;;;6245540;23;20004;-75
2023/04/09 02:05:48;;;;;;;8.80;6.13;;;9.70;74.30;;;;;;6245879;23;20011;-75
2023/04/09 02:08:19;;;;;;;11.35;6.50;;;9.70;74.00;;;;;;6245902;23;20459;-73
2023/04/09 02:10:52;;;;;;;11.52;6.65;;;9.80;74.00;;;;;;6219035;23;20008;-75
2023/04/09 02:13:19;;;;;;;10.02;6.30;;;9.80;74.30;;;;;;6246255;23;20008;-75
2023/04/09 02:15:46;;;;;;;8.85;6.65;;;9.90;74.10;;;;;;6245772;23;20315;-74
2023/04/09 02:18:30;;;;;;;10.18;6.97;;;9.80;74.00;;;;;;6245454;23;20023;-74
2023/04/09 02:20:58;;;;;;;9.63;6.85;;;9.90;74.30;;;;;;6245864;23;20070;-75
2023/04/09 02:23:24;;;;;;;8.95;6.50;;;9.90;74.20;;;;;;6245588;23;20012;-74
2023/04/09 02:25:51;;;;;;;9.15;6.75;;;9.90;74.20;;;;;;6245567;23;19996;-74
2023/04/09 02:28:17;;;;;;;10.02;6.13;;;9.90;74.00;;;;;;6245771;23;20034;-75
2023/04/09 02:30:42;;;;;;;9.23;6.30;;;9.90;74.10;;;;;;6245709;23;19996;-72
2023/04/09 02:33:08;;;;;;;8.30;6.13;;;10.00;73.00;;;;;;6245433;23;20008;-75
2023/04/09 02:35:34;;;;;;;10.73;6.40;;;9.90;74.00;;;;;;6245194;23;20028;-74
2023/04/09 02:38:00;;;;;;;8.48;6.13;;;9.90;74.10;;;;;;6245602;23;20020;-75
2023/04/09 02:40:26;;;;;;;8.10;6.25;;;9.90;74.00;;;;;;6245438;23;20333;-74
2023/04/09 02:42:52;;;;;;;7.40;5.85;;;9.90;74.20;;;;;;6245484;23;20315;-76
2023/04/09 02:45:18;;;;;;;8.73;6.05;;;9.80;73.90;;;;;;6245444;23;20515;-74
2023/04/09 02:47:44;;;;;;;8.40;6.40;;;9.80;74.20;;;;;;6245262;23;20036;-74
2023/04/09 02:50:09;;;;;;;8.32;6.22;;;9.80;74.40;;;;;;6245238;23;20003;-74
2023/04/09 02:52:35;;;;;;;8.88;6.25;;;9.80;74.30;;;;;;6219684;23;20401;-75
2023/04/09 02:55:01;;;;;;;9.32;5.80;;;9.80;74.10;;;;;;6247818;23;20000;-75
2023/04/09 02:57:27;;;;;;;8.13;5.88;;;9.80;74.10;;;;;;6245194;23;20012;-75
2023/04/09 02:59:52;;;;;;;7.80;6.18;;;9.80;74.00;;;;;;6245316;23;20405;-74
2023/04/09 03:02:18;;;;;;;8.70;6.50;;;9.90;74.20;;;;;;6245186;23;20008;-75
2023/04/09 03:04:44;;;;;;;9.85;6.00;;;9.90;74.00;;;;;;6245231;23;20042;-75
2023/04/09 03:07:10;;;;;;;10.50;6.45;;;9.80;73.90;;;;;;6245543;23;20008;-76
2023/04/09 03:09:36;;;;;;;9.45;6.20;;;9.80;74.00;;;;;;6245054;23;20379;-73
2023/04/09 03:12:01;;;;;;;9.02;5.95;;;9.80;74.00;;;;;;6245218;23;20000;-75
2023/04/09 03:14:27;;;;;;;9.40;6.50;;;9.70;74.00;;;;;;6245324;23;20011;-74
2023/04/09 03:16:53;;;;;;;9.50;6.40;;;9.70;74.20;;;;;;6244787;23;20032;-75
2023/04/09 03:19:19;;;;;;;8.60;5.80;;;9.70;74.10;;;;;;6217953;23;20102;-73
2023/04/09 03:21:45;;;;;;;8.00;5.80;;;9.80;74.00;;;;;;6245008;23;20326;-74
2023/04/09 03:24:11;;;;;;;9.02;5.93;;;9.80;74.20;;;;;;6245306;23;20012;-75
2023/04/09 03:26:37;;;;;;;7.88;5.50;;;9.80;73.90;;;;;;6244974;23;20031;-74
2023/04/09 03:29:04;;;;;;;9.93;6.60;;;9.80;74.10;;;;;;6245059;23;20016;-74
2023/04/09 03:31:30;;;;;;;9.63;6.47;;;9.70;73.80;;;;;;6244807;23;20323;-75
2023/04/09 03:33:55;;;;;;;8.63;6.00;;;9.80;73.90;;;;;;6244657;23;20026;-74
2023/04/09 03:36:21;;;;;;;8.63;5.80;;;9.80;73.80;;;;;;6245172;23;20415;-74
2023/04/09 03:38:47;;;;;;;8.20;5.57;;;9.80;73.80;;;;;;6245036;23;20382;-74
2023/04/09 03:41:13;;;;;;;7.88;5.65;;;9.80;74.10;;;;;;6245104;23;20505;-75
2023/04/09 03:43:38;;;;;;;8.20;5.65;;;9.80;73.60;;;;;;6244814;23;20078;-74
2023/04/09 03:46:14;;;;;;;7.70;5.72;;;9.80;73.80;;;;;;6245051;23;20072;-73
2023/04/09 03:48:40;;;;;;;9.48;6.15;;;9.80;73.50;;;;;;6218234;23;20073;-74
2023/04/09 03:51:06;;;;;;;10.95;6.00;;;9.80;73.70;;;;;;6218041;23;20032;-73
2023/04/09 03:53:31;;;;;;;8.63;5.90;;;9.80;73.80;;;;;;6245230;23;20003;-75
2023/04/09 03:55:57;;;;;;;8.65;5.75;;;9.80;73.80;;;;;;6217914;23;20014;-74
2023/04/09 03:58:23;;;;;;;8.05;5.70;;;9.80;73.90;;;;;;6244999;23;20479;-73
2023/04/09 04:00:49;;;;;;;9.00;6.50;;;9.80;73.90;;;;;;6218252;23;20036;-74
2023/04/09 04:03:15;;;;;;;15.38;6.28;;;9.80;73.50;;;;;;6244961;23;20326;-74
2023/04/09 04:05:41;;;;;;;8.57;6.13;;;9.80;73.50;;;;;;6245270;23;20030;-73
2023/04/09 04:08:07;;;;;;;8.20;5.28;;;9.80;73.50;;;;;;6244914;23;20000;-74
2023/04/09 04:10:33;;;;;;;8.98;5.80;;;9.70;73.40;;;;;;6244841;23;20312;-73
2023/04/09 04:13:00;;;;;;;8.75;5.93;;;9.80;73.30;;;;;;6244989;23;20400;-74
2023/04/09 04:15:27;;;;;;;8.98;5.82;;;9.70;73.40;;;;;;6244923;23;20046;-73
2023/04/09 04:17:53;;;;;;;10.65;5.90;;;9.70;73.10;;;;;;6217568;23;20020;-75
2023/04/09 04:20:19;;;;;;;8.98;6.10;;;9.70;73.20;;;;;;6244755;23;20062;-75
2023/04/09 04:22:44;;;;;;;9.25;5.80;;;9.70;73.30;;;;;;6244607;23;20000;-74
2023/04/09 04:25:10;;;;;;;9.05;6.05;;;9.70;73.20;;;;;;6245035;23;20003;-74
2023/04/09 04:27:36;;;;;;;10.95;6.22;;;9.70;73.30;;;;;;6246717;23;20011;-75
2023/04/09 04:30:02;;;;;;;8.05;5.78;;;9.70;73.10;;;;;;6246507;23;20338;-75
2023/04/09 04:32:28;;;;;;;8.68;6.03;;;9.60;73.50;;;;;;6246777;23;20004;-75
2023/04/09 04:34:54;;;;;;;8.57;5.82;;;9.60;73.20;;;;;;6246508;23;20011;-74
2023/04/09 04:37:20;;;;;;;7.72;5.68;;;9.50;73.40;;;;;;6246868;23;20043;-74
2023/04/09 04:39:46;;;;;;;11.00;6.55;;;9.50;73.60;;;;;;6246931;23;20075;-74
2023/04/09 04:42:11;;;;;;;8.52;6.07;;;9.50;73.60;;;;;;6246662;23;20472;-75
2023/04/09 04:44:37;;;;;;;8.77;6.13;;;9.50;73.80;;;;;;6247556;23;20054;-76
2023/04/09 04:47:03;;;;;;;8.35;6.07;;;9.50;73.50;;;;;;6246835;23;20031;-75
2023/04/09 04:49:29;;;;;;;8.65;6.35;;;9.50;73.60;;;;;;6246897;23;20012;-74
2023/04/09 04:51:55;;;;;;;9.35;7.05;;;9.50;73.60;;;;;;6246708;23;20000;-75
2023/04/09 04:54:20;;;;;;;8.98;6.93;;;9.50;73.60;;;;;;6246638;23;20307;-75
2023/04/09 04:56:46;;;;;;;10.75;6.65;;;9.50;73.70;;;;;;6245999;23;20087;-74
2023/04/09 04:59:11;;;;;;;13.88;6.45;;;9.40;73.80;;;;;;6246438;23;20031;-75
2023/04/09 05:01:37;;;;;;;12.75;6.97;;;9.40;73.80;;;;;;6246455;23;20003;-75
2023/04/09 05:04:03;;;;;;;10.63;7.10;;;9.40;73.60;;;;;;6246322;23;19999;-74
2023/04/09 05:06:29;;;;;;;11.55;7.55;;;9.40;73.50;;;;;;6247871;23;20001;-75
2023/04/09 05:08:57;;;;;;;10.18;7.50;;;9.40;73.20;;;;;;6248249;23;20000;-76
2023/04/09 05:11:27;;;;;;;10.65;8.02;;;9.50;73.40;;;;;;6246164;23;20024;-74
2023/04/09 05:13:52;;;;;;;10.75;8.00;;;9.40;73.20;;;;;;6219492;23;20008;-77
2023/04/09 05:16:19;;;;;;;9.77;7.43;;;9.50;73.50;;;;;;6246263;23;20046;-74
2023/04/09 05:18:46;;;;;;;12.70;7.80;;;9.50;73.60;;;;;;6246215;23;20090;-77
2023/04/09 05:21:11;;;;;;;10.27;7.03;;;9.50;73.30;;;;;;6246240;23;20003;-75
2023/04/09 05:23:37;;;;;;;11.23;6.95;;;9.60;73.40;;;;;;6246113;23;20082;-73
2023/04/09 05:26:03;;;;;;;11.90;7.22;;;9.60;73.20;;;;;;6245890;23;19996;-75
2023/04/09 05:28:29;;;;;;;9.35;6.70;;;9.70;73.20;;;;;;6246233;23;20000;-74
2023/04/09 05:30:55;;;;;;;10.23;6.95;;;9.70;73.10;;;;;;6246443;23;20335;-75
2023/04/09 05:33:21;;;;;;;9.15;6.50;;;9.70;73.10;;;;;;6246164;23;19997;-74
2023/04/09 05:35:46;;;;;;;10.07;6.80;;;9.70;72.90;;;;;;6246076;23;20000;-74
2023/04/09 05:38:12;;;;;;;14.60;8.30;;;9.80;73.00;;;;;;6245533;23;20044;-74
2023/04/09 05:40:38;;;;;;;13.52;7.47;;;9.80;72.80;;;;;;6219179;23;20039;-75
2023/04/09 05:43:05;;;;;;;11.05;7.95;;;9.80;72.90;;;;;;6218865;23;20027;-75
2023/04/09 05:45:30;;;;;;;13.38;7.88;;;9.80;72.80;;;;;;6246112;23;19997;-75
2023/04/09 05:47:56;;;;;;;11.43;7.18;;;9.80;72.90;;;;;;6246037;23;20000;-75
2023/04/09 05:50:22;;;;;;;11.70;6.53;;;9.80;73.20;;;;;;6246046;23;20045;-75
2023/04/09 05:52:48;;;;;;;10.05;6.68;;;10.00;72.10;;;;;;6246233;23;20434;-74
2023/04/09 05:55:13;;;;;;;7.60;5.80;;;10.20;71.80;;;;;;6245857;23;20399;-75
2023/04/09 05:57:39;;;;;;;10.13;5.95;;;10.30;71.40;;;;;;6245830;23;20119;-76
2023/04/09 06:00:07;;;;;;;8.77;5.63;;;10.50;71.10;;;;;;6246198;23;20009;-75
2023/04/09 06:02:32;;;;;;;7.30;5.40;;;10.70;70.90;;;;;;6245861;23;20473;-75
2023/04/09 06:04:58;;;;;;;10.00;5.75;;;10.90;70.10;;;;;;6245733;23;19996;-75
2023/04/09 06:07:24;;;;;;;6.57;5.03;;;11.10;69.80;;;;;;6245772;23;20011;-74
2023/04/09 06:09:49;;;;;;;7.35;5.47;;;11.20;69.20;;;;;;6245756;23;19997;-75
2023/04/09 06:12:16;;;;;;;7.65;5.35;;;11.30;69.10;;;;;;6245552;23;20334;-74
2023/04/09 06:14:42;;;;;;;10.90;5.00;;;11.40;68.50;;;;;;6245747;23;20318;-74
2023/04/09 06:17:07;;;;;;;10.30;5.43;;;11.30;68.60;;;;;;6245245;23;20091;-74
2023/04/09 06:19:36;;;;;;;6.80;4.93;;;11.20;68.60;;;;;;6245663;23;20155;-75
2023/04/09 06:22:01;;;;;;;9.30;5.00;;;11.20;68.80;;;;;;6245444;23;20290;-75
2023/04/09 06:24:27;;;;;;;10.40;5.40;;;11.30;68.60;;;;;;6245631;23;20000;-75
2023/04/09 06:26:53;;;;;;;7.50;5.32;;;11.40;68.30;;;;;;6245647;23;20394;-74
2023/04/09 06:29:18;;;;;;;6.88;4.75;;;11.70;68.50;;;;;;6245630;23;20000;-76
2023/04/09 06:31:45;;;;;;;6.13;4.80;;;12.00;68.30;;;;;;6245212;23;20107;-75
2023/04/09 06:34:11;;;;;;;6.68;4.80;;;12.20;67.20;;;;;;6245206;23;19992;-76
2023/04/09 06:36:39;;;;;;;7.65;5.15;;;12.40;67.20;;;;;;6245381;23;20011;-75
2023/04/09 06:39:04;;;;;;;10.07;5.85;;;12.50;66.10;;;;;;6245455;23;20004;-74
2023/04/09 06:41:31;;;;;;;8.35;5.78;;;12.60;66.10;;;;;;6245934;23;20109;-76
2023/04/09 06:43:57;;;;;;;7.70;5.25;;;12.70;65.60;;;;;;6245487;23;20000;-75
2023/04/09 06:46:23;;;;;;;7.32;5.55;;;12.80;65.20;;;;;;6218607;23;20095;-75
2023/04/09 06:48:49;;;;;;;10.48;5.38;;;13.10;65.40;;;;;;6246240;23;20050;-75
2023/04/09 06:51:14;;;;;;;7.00;5.07;;;13.30;65.10;;;;;;6245855;23;20007;-74
2023/04/09 06:53:40;;;;;;;9.55;5.30;;;13.50;64.30;;;;;;6220798;23;20006;-75
2023/04/09 06:56:06;;;;;;;7.80;5.30;;;13.50;63.40;;;;;;6245777;23;20106;-75
2023/04/09 06:58:32;;;;;;;7.40;5.00;;;13.60;63.40;;;;;;6245244;23;20008;-75
2023/04/09 07:00:59;;;;;;;6.78;4.60;;;13.70;63.10;;;;;;6218214;23;20008;-75
2023/04/09 07:03:26;;;;;;;9.35;5.53;;;13.80;62.50;;;;;;6246308;23;20060;-75
2023/04/09 07:05:56;;;;;;;7.72;4.80;;;14.00;62.70;;;;;;6248998;23;20035;-76
2023/04/09 07:08:22;;;;;;;6.65;4.80;;;14.20;62.50;;;;;;6246193;23;20012;-76
2023/04/09 07:10:48;;;;;;;7.18;4.40;;;14.40;62.50;;;;;;6218106;23;20000;-75
2023/04/09 07:13:14;;;;;;;9.98;4.78;;;14.50;61.80;;;;;;6244817;23;20090;-75
2023/04/09 07:15:39;;;;;;;6.82;4.43;;;14.60;61.70;;;;;;6245161;23;20000;-75
2023/04/09 07:18:06;;;;;;;9.07;4.55;;;14.60;61.40;;;;;;6244432;23;20450;-75
2023/04/09 07:20:33;;;;;;;8.85;4.40;;;14.60;61.20;;;;;;6244851;23;19996;-75
2023/04/09 07:22:59;;;;;;;7.78;4.60;;;14.60;61.20;;;;;;6244896;23;20012;-75
2023/04/09 07:25:25;;;;;;;7.22;4.32;;;14.70;61.30;;;;;;6244789;23;20326;-75
2023/04/09 07:27:51;;;;;;;8.07;4.38;;;14.70;60.90;;;;;;6244967;23;20004;-75
2023/04/09 07:30:17;;;;;;;6.68;4.22;;;14.60;60.70;;;;;;6245104;23;20087;-78
2023/04/09 07:32:42;;;;;;;7.05;3.83;;;14.60;60.50;;;;;;6244768;23;20008;-75
2023/04/09 07:35:08;;;;;;;8.18;4.47;;;14.50;60.60;;;;;;6244746;23;20000;-74
2023/04/09 07:37:35;;;;;;;6.30;3.92;;;14.40;60.80;;;;;;6244895;23;20087;-77
2023/04/09 07:40:02;;;;;;;6.93;4.40;;;14.40;60.40;;;;;;6244916;23;20028;-75
2023/04/09 07:42:28;;;;;;;7.28;3.55;;;14.50;60.60;;;;;;6244614;23;20041;-74
2023/04/09 07:44:55;;;;;;;7.43;3.83;;;14.50;61.30;;;;;;6245132;23;20004;-75
2023/04/09 07:47:22;;;;;;;8.43;3.90;;;14.40;60.60;;;;;;6245285;23;20012;-75
2023/04/09 07:49:48;;;;;;;4.75;3.40;;;14.50;60.40;;;;;;6244671;23;20002;-74
2023/04/09 07:52:14;;;;;;;5.60;3.53;;;14.40;60.00;;;;;;6218077;23;20217;-75
2023/04/09 07:54:40;;;;;;;6.03;3.60;;;14.30;60.20;;;;;;6218064;23;20015;-74
2023/04/09 07:57:06;;;;;;;6.30;3.83;;;14.40;60.60;;;;;;6244692;23;20000;-75
2023/04/09 07:59:35;;;;;;;6.35;3.72;;;14.40;60.60;;;;;;6217893;23;20019;-75
2023/04/09 08:02:01;;;;;;;4.85;3.30;;;14.40;60.60;;;;;;6246739;23;20004;-75
2023/04/09 08:04:26;;;;;;;5.88;3.70;;;14.40;60.30;;;;;;6246829;23;20456;-76
2023/04/09 08:06:52;;;;;;;5.68;3.08;;;14.40;60.50;;;;;;6247123;23;20004;-74
2023/04/09 08:09:19;;;;;;;7.95;3.40;;;14.40;60.30;;;;;;6246618;23;20027;-76
2023/04/09 08:11:46;;;;;;;5.80;3.15;;;14.40;60.40;;;;;;6246828;23;20000;-74
2023/04/09 08:14:13;;;;;;;5.60;3.63;;;14.40;60.30;;;;;;6219525;23;20461;-75
2023/04/09 08:16:40;;;;;;;6.60;3.28;;;14.60;60.40;;;;;;6246424;23;20026;-75
2023/04/09 08:19:07;;;;;;;5.05;2.97;;;14.60;59.80;;;;;;6220025;23;20004;-75
2023/04/09 08:21:35;;;;;;;5.38;3.08;;;14.50;59.70;;;;;;6246728;23;20020;-76
2023/04/09 08:24:03;;;;;;;6.65;3.75;;;14.50;59.70;;;;;;6246494;23;20004;-75
2023/04/09 08:26:29;;;;;;;6.57;3.55;;;14.40;59.80;;;;;;6219629;23;20529;-75
2023/04/09 08:28:55;;;;;;;5.57;3.47;;;14.40;59.90;;;;;;6246776;23;19997;-75
2023/04/09 08:31:21;;;;;;;7.03;3.78;;;14.40;60.00;;;;;;6246585;23;20456;-75
2023/04/09 08:33:47;;;;;;;4.90;3.15;;;14.40;60.30;;;;;;6246583;23;20063;-76
2023/04/09 08:36:12;;;;;;;6.20;3.45;;;14.40;60.30;;;;;;6246512;23;20000;-74
2023/04/09 08:38:39;;;;;;;7.03;3.20;;;14.50;60.40;;;;;;6246530;23;20012;-74
2023/04/09 08:41:05;;;;;;;5.88;3.05;;;14.50;60.30;;;;;;6246193;23;20054;-74
2023/04/09 08:43:33;;;;;;;7.05;3.42;;;14.50;60.40;;;;;;6246455;23;20373;-74
2023/04/09 08:46:01;;;;;;;5.45;3.10;;;14.40;60.40;;;;;;6246170;23;20430;-74
2023/04/09 08:48:27;;;;;;;4.95;3.00;;;14.40;60.40;;;;;;6246259;23;20074;-74
2023/04/09 08:50:53;;;;;;;5.85;3.10;;;14.50;60.10;;;;;;6246238;23;20027;-75
2023/04/09 08:53:23;;;;;;;6.03;3.15;;;14.50;60.20;;;;;;6246550;23;19996;-76
2023/04/09 08:55:48;;;;;;;6.43;3.33;;;14.60;60.00;;;;;;6246592;23;20064;-76
2023/04/09 08:58:14;;;;;;;4.43;2.72;;;14.70;60.00;;;;;;6246367;23;20035;-75
2023/04/09 09:00:40;;;;;;;5.63;2.97;;;14.80;60.10;;;;;;6248956;23;20042;-74
2023/04/09 09:03:08;;;;;;;6.50;2.70;;;14.80;59.90;;;;;;6251768;23;20118;-74
2023/04/09 09:05:39;;;;;;;4.70;2.47;;;14.90;59.20;;;;;;6247030;23;20051;-75
2023/04/09 09:08:09;;;;;;;4.15;2.08;;;15.00;59.40;;;;;;6246346;23;20099;-74
2023/04/09 09:10:42;;;;;;;4.15;2.20;;;15.10;58.90;;;;;;6245986;23;20000;-75
2023/04/09 09:13:20;;;;;;;4.67;2.77;;;15.10;58.50;;;;;;6245754;23;20008;-74
2023/04/09 09:15:48;;;;;;;4.97;2.35;;;15.10;58.10;;;;;;6252172;23;20233;-76
2023/04/09 09:18:14;;;;;;;4.32;2.10;;;15.10;57.50;;;;;;6245871;23;20020;-75
2023/04/09 09:20:40;;;;;;;3.10;1.70;;;15.20;57.50;;;;;;6246244;23;20023;-75
2023/04/09 09:23:05;;;;;;;2.70;1.80;;;15.20;57.10;;;;;;6246056;23;20085;-74
2023/04/09 09:25:40;;;;;;;3.38;1.98;;;15.30;56.70;;;;;;6246355;23;19997;-75
2023/04/09 09:28:09;;;;;;;4.07;2.40;;;15.30;55.90;;;;;;6219132;23;20008;-75
2023/04/09 09:30:37;;;;;;;3.30;1.75;;;15.40;55.40;;;;;;6245965;23;20025;-75
2023/04/09 09:33:11;;;;;;;2.08;1.40;;;15.40;55.70;;;;;;6218844;23;20434;-74
2023/04/09 09:35:56;;;;;;;3.47;2.05;;;15.50;55.30;;;;;;6245986;23;20055;-77
2023/04/09 09:38:22;;;;;;;3.33;1.90;;;15.60;54.90;;;;;;6246205;23;20012;-74
2023/04/09 09:40:49;;;;;;;3.92;1.95;;;15.60;53.80;;;;;;6246068;23;20001;-75
2023/04/09 09:43:15;;;;;;;5.60;2.55;;;15.60;54.40;;;;;;6218728;23;20391;-75
2023/04/09 09:45:42;;;;;;;4.18;2.15;;;15.70;53.70;;;;;;6245837;23;20032;-74
2023/04/09 09:48:10;;;;;;;3.35;1.90;;;15.70;53.60;;;;;;6245830;23;20007;-75
2023/04/09 09:50:38;;;;;;;4.85;2.10;;;15.80;53.50;;;;;;6245719;23;20075;-74
2023/04/09 09:53:06;;;;;;;3.35;1.80;;;15.90;52.90;;;;;;6245257;23;20028;-74
2023/04/09 09:55:33;;;;;;;3.28;1.92;;;15.90;52.80;;;;;;6245186;23;20004;-74
2023/04/09 09:58:02;;;;;;;3.72;2.08;;;16.00;52.20;;;;;;6245426;23;20062;-74
2023/04/09 10:00:31;;;;;;;5.97;2.17;;;16.10;51.90;;;;;;6245457;23;20175;-76
2023/04/09 10:03:02;;;;;;;3.72;1.98;;;16.10;52.10;;;;;;6245901;23;20039;-75
2023/04/09 10:05:30;;;;;;;3.22;1.60;;;16.20;51.80;;;;;;6245348;23;19996;-74
2023/04/09 10:07:57;;;;;;;3.58;1.90;;;16.30;51.10;;;;;;6219125;23;20047;-74
2023/04/09 10:10:24;;;;;;;3.53;1.92;;;16.30;50.60;;;;;;6245944;23;20411;-74
2023/04/09 10:12:51;;;;;;;3.65;2.10;;;16.40;51.00;;;;;;6245733;23;20004;-75
2023/04/09 10:15:18;;;;;;;7.82;2.22;;;16.40;50.70;;;;;;6245691;23;20000;-74
2023/04/09 10:17:45;;;;;;;4.28;1.83;;;16.50;50.60;;;;;;6245273;23;20054;-75
2023/04/09 10:20:15;;;;;;;4.90;2.60;;;16.50;50.90;;;;;;6245508;23;20426;-71
2023/04/09 10:22:47;;;;;;;4.57;2.33;;;16.60;51.00;;;;;;6245124;23;20014;-74
2023/04/09 10:25:13;;;;;;;4.88;2.45;;;16.70;50.60;;;;;;6245513;23;19996;-76
2023/04/09 10:27:39;;;;;;;5.63;2.78;;;16.70;50.80;;;;;;6245608;23;20004;-75
2023/04/09 10:30:09;;;;;;;5.68;2.88;;;16.80;50.80;;;;;;6245189;23;20034;-75
2023/04/09 10:32:35;;;;;;;4.93;2.35;;;16.90;51.00;;;;;;6245617;23;20000;-74
2023/04/09 10:35:02;;;;;;;4.35;2.38;;;17.00;50.10;;;;;;6245308;23;20000;-74
2023/04/09 10:37:28;;;;;;;4.75;2.42;;;17.10;50.10;;;;;;6245448;23;20007;-75
2023/04/09 10:39:55;;;;;;;3.42;1.80;;;17.20;49.60;;;;;;6245320;23;20334;-75
2023/04/09 10:42:35;;;;;;;4.93;1.77;;;17.20;48.50;;;;;;6245157;23;20031;-74
2023/04/09 10:45:07;;;;;;;4.72;2.05;;;17.20;48.60;;;;;;6245632;23;20067;-75
2023/04/09 10:47:37;;;;;;;4.63;2.17;;;17.30;48.30;;;;;;6245130;23;20000;-74
2023/04/09 10:50:19;;;;;;;3.47;1.80;;;17.40;48.70;;;;;;6245154;23;20071;-74
2023/04/09 10:52:45;;;;;;;3.10;1.85;;;17.50;48.30;;;;;;6246147;23;20015;-74
2023/04/09 10:55:37;;;;;;;4.03;1.83;;;17.60;48.20;;;;;;6246959;23;19996;-76
2023/04/09 10:58:04;;;;;;;4.45;2.50;;;17.70;47.70;;;;;;6247257;23;20058;-74
2023/04/09 11:00:30;;;;;;;4.57;2.55;;;17.80;47.50;;;;;;6248198;23;20371;-74
2023/04/09 11:03:03;;;;;;;3.70;2.15;;;17.80;47.50;;;;;;6246759;23;20490;-75
2023/04/09 11:05:38;;;;;;;3.85;2.08;;;17.80;47.10;;;;;;6245300;23;20047;-75
2023/04/09 11:08:12;;;;;;;3.42;2.15;;;17.80;46.60;;;;;;6245292;23;20083;-75
2023/04/09 11:10:40;;;;;;;4.90;2.45;;;17.80;46.90;;;;;;6245314;23;20095;-74
2023/04/09 11:13:10;;;;;;;4.88;2.50;;;17.90;46.60;;;;;;6245280;23;20000;-74
2023/04/09 11:15:36;;;;;;;3.63;2.20;;;18.00;46.70;;;;;;6245041;23;20023;-76
2023/04/09 11:18:02;;;;;;;4.60;2.47;;;18.10;46.40;;;;;;6244452;23;20020;-75
2023/04/09 11:20:30;;;;;;;4.07;2.30;;;18.10;46.10;;;;;;6245200;23;20083;-74
2023/04/09 11:22:55;;;;;;;5.47;2.90;;;18.20;46.00;;;;;;6245087;23;20131;-76
2023/04/09 11:25:26;;;;;;;5.57;2.40;;;18.30;45.90;;;;;;6245423;23;20028;-74
2023/04/09 11:27:53;;;;;;;4.43;2.40;;;18.40;44.80;;;;;;6217810;23;20445;-74
2023/04/09 11:30:19;;;;;;;3.90;2.40;;;18.50;45.50;;;;;;6218143;23;20005;-73
2023/04/09 11:32:45;;;;;;;4.68;2.28;;;18.50;45.60;;;;;;6245090;23;20077;-75
2023/04/09 11:35:16;;;;;;;3.08;1.85;;;18.50;45.50;;;;;;6244388;23;20000;-75
2023/04/09 11:37:43;;;;;;;5.90;2.25;;;18.60;45.30;;;;;;6245092;23;20107;-75
2023/04/09 11:40:21;;;;;;;4.40;2.08;;;18.60;44.90;;;;;;6245304;23;20043;-75
2023/04/09 11:42:52;;;;;;;3.22;1.90;;;18.70;42.40;;;;;;6245206;23;20299;-74
2023/04/09 11:45:22;;;;;;;4.07;2.03;;;18.70;43.90;;;;;;6218106;23;20004;-74
2023/04/09 11:47:48;;;;;;;3.60;2.00;;;18.70;43.80;;;;;;6244944;23;20415;-75
2023/04/09 11:50:15;;;;;;;3.67;1.95;;;18.80;43.50;;;;;;6244910;23;20359;-74
2023/04/09 11:52:41;;;;;;;3.78;2.03;;;18.90;43.60;;;;;;6244899;23;20000;-75
2023/04/09 11:55:09;;;;;;;2.72;1.70;;;19.00;43.70;;;;;;6245062;23;19996;-76
2023/04/09 11:57:45;;;;;;;4.47;2.60;;;19.00;43.40;;;;;;6244731;23;20446;-74
2023/04/09 12:00:16;;;;;;;3.70;1.80;;;19.00;43.40;;;;;;6245195;23;20073;-75
2023/04/09 12:02:48;;;;;;;3.17;1.85;;;19.00;43.40;;;;;;6245364;23;20075;-76
2023/04/09 12:05:25;;;;;;;2.25;1.60;;;19.00;41.50;;;;;;6245108;23;20011;-76
2023/04/09 12:07:55;;;;;;;3.13;1.90;;;19.00;43.10;;;;;;6244894;23;20004;-76
2023/04/09 12:10:29;;;;;;;3.13;1.98;;;19.10;43.40;;;;;;6244642;23;20434;-76
2023/04/09 12:13:07;;;;;;;5.43;2.38;;;19.20;43.40;;;;;;6244863;23;20054;-75
2023/04/09 12:15:34;;;;;;;4.47;2.17;;;19.20;41.40;;;;;;6218004;23;20031;-74
2023/04/09 12:18:00;;;;;;;4.75;2.30;;;19.30;43.00;;;;;;6244725;23;20047;-75
2023/04/09 12:20:30;;;;;;;3.00;2.00;;;19.30;42.90;;;;;;6244774;23;20004;-75
2023/04/09 12:22:57;;;;;;;5.30;2.78;;;19.20;42.90;;;;;;6244672;23;20004;-78
2023/04/09 12:25:22;;;;;;;2.92;1.73;;;19.20;43.40;;;;;;6245164;23;19996;-75
2023/04/09 12:27:48;;;;;;;4.68;2.05;;;19.40;43.00;;;;;;6244686;23;20063;-75
2023/04/09 12:30:14;;;;;;;4.07;2.20;;;19.40;42.40;;;;;;6244793;23;20023;-76
2023/04/09 12:32:41;;;;;;;4.63;2.15;;;19.50;41.90;;;;;;6244771;23;20000;-75
2023/04/09 12:35:07;;;;;;;3.78;1.92;;;19.60;42.40;;;;;;6244411;23;19996;-77
2023/04/09 12:37:33;;;;;;;3.45;1.92;;;19.90;42.10;;;;;;6244705;23;20008;-75
2023/04/09 12:39:59;;;;;;;5.85;1.83;;;20.00;41.90;;;;;;6244885;23;20059;-74
2023/04/09 12:42:24;;;;;;;4.30;2.10;;;20.10;41.60;;;;;;6244496;23;20004;-75
2023/04/09 12:44:50;;;;;;;2.80;1.80;;;20.10;41.60;;;;;;6217625;23;20008;-75
2023/04/09 12:47:16;;;;;;;3.83;1.90;;;20.20;41.50;;;;;;6245441;23;20010;-74
2023/04/09 12:49:45;;;;;;;3.83;1.70;;;20.30;40.40;;;;;;6246682;23;20075;-76